sensor_id;sensor_type;location;lat;lon;timestamp;P1;durP1;ratioP1;P2;durP2;ratioP2
11344;SDS011;5727;42.600;23.028;2023-06-22T00:00:39;18.10;;;10.63;;
11344;SDS011;5727;42.600;23.028;2023-06-22T00:03:07;18.93;;;11.33;;
11344;SDS011;5727;42.600;23.028;2023-06-22T00:05:34;18.90;;;9.93;;
11344;SDS011;5727;42.600;23.028;2023-06-22T00:08:02;19.67;;;9.70;;
11344;SDS011;5727;42.600;23.028;2023-06-22T00:10:30;17.77;;;10.57;;
11344;SDS011;5727;42.600;23.028;2023-06-22T00:12:58;20.97;;;11.17;;
11344;SDS011;5727;42.600;23.028;2023-06-22T00:15:25;19.07;;;11.20;;
11344;SDS011;5727;42.600;23.028;2023-06-22T00:17:52;24.97;;;11.50;;
11344;SDS011;5727;42.600;23.028;2023-06-22T00:20:19;16.17;;;10.90;;
11344;SDS011;5727;42.600;23.028;2023-06-22T00:22:46;18.23;;;11.60;;
11344;SDS011;5727;42.600;23.028;2023-06-22T00:25:13;19.33;;;11.73;;
11344;SDS011;5727;42.600;23.028;2023-06-22T00:27:40;22.90;;;12.23;;
11344;SDS011;5727;42.600;23.028;2023-06-22T00:30:08;19.97;;;11.60;;
11344;SDS011;5727;42.600;23.028;2023-06-22T00:32:36;19.70;;;11.83;;
11344;SDS011;5727;42.600;23.028;2023-06-22T00:35:03;14.67;;;10.40;;
11344;SDS011;5727;42.600;23.028;2023-06-22T00:37:30;22.70;;;11.87;;
11344;SDS011;5727;42.600;23.028;2023-06-22T00:39:57;19.37;;;11.57;;
11344;SDS011;5727;42.600;23.028;2023-06-22T00:42:24;20.13;;;10.43;;
11344;SDS011;5727;42.600;23.028;2023-06-22T00:44:51;17.27;;;10.70;;
11344;SDS011;5727;42.600;23.028;2023-06-22T00:47:19;17.90;;;10.60;;
11344;SDS011;5727;42.600;23.028;2023-06-22T00:49:46;20.40;;;10.37;;
11344;SDS011;5727;42.600;23.028;2023-06-22T00:52:16;22.60;;;11.33;;
11344;SDS011;5727;42.600;23.028;2023-06-22T00:54:46;19.97;;;10.13;;
11344;SDS011;5727;42.600;23.028;2023-06-22T00:57:15;20.83;;;11.23;;
11344;SDS011;5727;42.600;23.028;2023-06-22T00:59:43;17.90;;;11.27;;
11344;SDS011;5727;42.600;23.028;2023-06-22T01:02:11;17.47;;;10.60;;
11344;SDS011;5727;42.600;23.028;2023-06-22T01:04:39;17.53;;;10.70;;
11344;SDS011;5727;42.600;23.028;2023-06-22T01:07:10;20.20;;;10.00;;
11344;SDS011;5727;42.600;23.028;2023-06-22T01:09:49;19.17;;;10.60;;
11344;SDS011;5727;42.600;23.028;2023-06-22T01:12:23;25.13;;;10.70;;
11344;SDS011;5727;42.600;23.028;2023-06-22T01:14:54;21.70;;;11.10;;
11344;SDS011;5727;42.600;23.028;2023-06-22T01:17:24;17.30;;;9.93;;
11344;SDS011;5727;42.600;23.028;2023-06-22T01:19:54;19.53;;;11.23;;
11344;SDS011;5727;42.600;23.028;2023-06-22T01:22:22;17.40;;;10.10;;
11344;SDS011;5727;42.600;23.028;2023-06-22T01:24:55;21.13;;;10.93;;
11344;SDS011;5727;42.600;23.028;2023-06-22T01:27:34;19.33;;;10.60;;
11344;SDS011;5727;42.600;23.028;2023-06-22T01:30:09;15.47;;;9.77;;
11344;SDS011;5727;42.600;23.028;2023-06-22T01:32:37;27.87;;;11.17;;
11344;SDS011;5727;42.600;23.028;2023-06-22T01:35:07;21.83;;;10.90;;
11344;SDS011;5727;42.600;23.028;2023-06-22T01:37:36;17.77;;;10.87;;
11344;SDS011;5727;42.600;23.028;2023-06-22T01:40:04;17.77;;;8.73;;
11344;SDS011;5727;42.600;23.028;2023-06-22T01:42:33;17.17;;;10.67;;
11344;SDS011;5727;42.600;23.028;2023-06-22T01:45:01;17.17;;;9.73;;
11344;SDS011;5727;42.600;23.028;2023-06-22T01:47:30;21.37;;;11.10;;
11344;SDS011;5727;42.600;23.028;2023-06-22T01:49:58;16.47;;;10.33;;
11344;SDS011;5727;42.600;23.028;2023-06-22T01:52:25;20.57;;;11.10;;
11344;SDS011;5727;42.600;23.028;2023-06-22T01:54:51;17.10;;;9.87;;
11344;SDS011;5727;42.600;23.028;2023-06-22T01:57:18;18.93;;;11.40;;
11344;SDS011;5727;42.600;23.028;2023-06-22T01:59:47;25.40;;;11.07;;
11344;SDS011;5727;42.600;23.028;2023-06-22T02:02:19;17.87;;;11.00;;
11344;SDS011;5727;42.600;23.028;2023-06-22T02:04:54;22.83;;;11.27;;
11344;SDS011;5727;42.600;23.028;2023-06-22T02:07:27;22.83;;;11.20;;
11344;SDS011;5727;42.600;23.028;2023-06-22T02:09:58;19.07;;;11.77;;
11344;SDS011;5727;42.600;23.028;2023-06-22T02:12:28;19.00;;;12.00;;
11344;SDS011;5727;42.600;23.028;2023-06-22T02:14:57;18.43;;;11.23;;
11344;SDS011;5727;42.600;23.028;2023-06-22T02:17:25;17.63;;;10.60;;
11344;SDS011;5727;42.600;23.028;2023-06-22T02:19:54;20.50;;;11.97;;
11344;SDS011;5727;42.600;23.028;2023-06-22T02:22:20;22.70;;;11.33;;
11344;SDS011;5727;42.600;23.028;2023-06-22T02:24:48;18.30;;;11.27;;
11344;SDS011;5727;42.600;23.028;2023-06-22T02:27:15;17.80;;;10.40;;
11344;SDS011;5727;42.600;23.028;2023-06-22T02:29:42;15.67;;;9.80;;
11344;SDS011;5727;42.600;23.028;2023-06-22T02:32:09;19.33;;;10.30;;
11344;SDS011;5727;42.600;23.028;2023-06-22T02:34:35;15.63;;;9.63;;
11344;SDS011;5727;42.600;23.028;2023-06-22T02:37:04;15.60;;;9.53;;
11344;SDS011;5727;42.600;23.028;2023-06-22T02:39:30;13.53;;;10.00;;
11344;SDS011;5727;42.600;23.028;2023-06-22T02:41:57;12.67;;;8.63;;
11344;SDS011;5727;42.600;23.028;2023-06-22T02:44:24;12.67;;;8.83;;
11344;SDS011;5727;42.600;23.028;2023-06-22T02:46:51;12.70;;;9.53;;
11344;SDS011;5727;42.600;23.028;2023-06-22T02:49:19;15.87;;;9.30;;
11344;SDS011;5727;42.600;23.028;2023-06-22T02:51:46;12.43;;;8.80;;
11344;SDS011;5727;42.600;23.028;2023-06-22T02:54:15;13.90;;;9.50;;
11344;SDS011;5727;42.600;23.028;2023-06-22T02:56:42;13.37;;;9.20;;
11344;SDS011;5727;42.600;23.028;2023-06-22T02:59:10;16.77;;;9.80;;
11344;SDS011;5727;42.600;23.028;2023-06-22T03:01:36;17.33;;;10.13;;
11344;SDS011;5727;42.600;23.028;2023-06-22T03:04:05;15.57;;;10.30;;
11344;SDS011;5727;42.600;23.028;2023-06-22T03:06:32;19.00;;;10.80;;
11344;SDS011;5727;42.600;23.028;2023-06-22T03:08:59;14.50;;;10.87;;
11344;SDS011;5727;42.600;23.028;2023-06-22T03:11:29;14.83;;;10.17;;
11344;SDS011;5727;42.600;23.028;2023-06-22T03:13:56;14.53;;;10.23;;
11344;SDS011;5727;42.600;23.028;2023-06-22T03:16:23;13.63;;;9.57;;
11344;SDS011;5727;42.600;23.028;2023-06-22T03:18:50;16.87;;;10.13;;
11344;SDS011;5727;42.600;23.028;2023-06-22T03:21:18;18.60;;;9.23;;
11344;SDS011;5727;42.600;23.028;2023-06-22T03:23:45;17.77;;;8.93;;
11344;SDS011;5727;42.600;23.028;2023-06-22T03:26:11;21.13;;;9.57;;
11344;SDS011;5727;42.600;23.028;2023-06-22T03:28:40;16.50;;;10.00;;
11344;SDS011;5727;42.600;23.028;2023-06-22T03:31:06;17.97;;;9.63;;
11344;SDS011;5727;42.600;23.028;2023-06-22T03:33:33;20.13;;;10.80;;
11344;SDS011;5727;42.600;23.028;2023-06-22T03:36:00;23.03;;;10.23;;
11344;SDS011;5727;42.600;23.028;2023-06-22T03:38:26;25.13;;;9.73;;
11344;SDS011;5727;42.600;23.028;2023-06-22T03:40:53;22.27;;;10.03;;
11344;SDS011;5727;42.600;23.028;2023-06-22T03:43:20;23.67;;;9.53;;
11344;SDS011;5727;42.600;23.028;2023-06-22T03:45:48;26.93;;;11.40;;
11344;SDS011;5727;42.600;23.028;2023-06-22T03:48:15;24.03;;;10.67;;
11344;SDS011;5727;42.600;23.028;2023-06-22T03:50:41;24.47;;;10.50;;
11344;SDS011;5727;42.600;23.028;2023-06-22T03:53:09;24.53;;;11.27;;
11344;SDS011;5727;42.600;23.028;2023-06-22T03:55:36;23.80;;;10.03;;
11344;SDS011;5727;42.600;23.028;2023-06-22T03:58:02;28.00;;;10.67;;
11344;SDS011;5727;42.600;23.028;2023-06-22T04:00:30;20.27;;;10.63;;
11344;SDS011;5727;42.600;23.028;2023-06-22T04:02:59;19.70;;;10.10;;
11344;SDS011;5727;42.600;23.028;2023-06-22T04:05:25;26.80;;;11.40;;
11344;SDS011;5727;42.600;23.028;2023-06-22T04:07:52;22.10;;;11.17;;
11344;SDS011;5727;42.600;23.028;2023-06-22T04:10:19;17.43;;;10.17;;
11344;SDS011;5727;42.600;23.028;2023-06-22T04:12:46;30.13;;;10.43;;
11344;SDS011;5727;42.600;23.028;2023-06-22T04:15:13;23.63;;;10.93;;
11344;SDS011;5727;42.600;23.028;2023-06-22T04:17:40;25.10;;;11.07;;
11344;SDS011;5727;42.600;23.028;2023-06-22T04:20:08;23.50;;;11.87;;
11344;SDS011;5727;42.600;23.028;2023-06-22T04:22:35;25.97;;;12.30;;
11344;SDS011;5727;42.600;23.028;2023-06-22T04:25:02;21.57;;;11.10;;
11344;SDS011;5727;42.600;23.028;2023-06-22T04:27:29;18.33;;;10.40;;
11344;SDS011;5727;42.600;23.028;2023-06-22T04:29:56;19.93;;;11.00;;
11344;SDS011;5727;42.600;23.028;2023-06-22T04:32:25;53.40;;;12.97;;
11344;SDS011;5727;42.600;23.028;2023-06-22T04:34:52;17.30;;;10.33;;
11344;SDS011;5727;42.600;23.028;2023-06-22T04:37:20;21.73;;;10.77;;
11344;SDS011;5727;42.600;23.028;2023-06-22T04:39:48;22.57;;;9.70;;
11344;SDS011;5727;42.600;23.028;2023-06-22T04:42:15;18.67;;;9.53;;
11344;SDS011;5727;42.600;23.028;2023-06-22T04:44:41;26.07;;;10.60;;
11344;SDS011;5727;42.600;23.028;2023-06-22T04:47:08;19.77;;;10.57;;
11344;SDS011;5727;42.600;23.028;2023-06-22T04:49:35;20.87;;;10.17;;
11344;SDS011;5727;42.600;23.028;2023-06-22T04:52:03;19.03;;;9.87;;
11344;SDS011;5727;42.600;23.028;2023-06-22T04:54:33;21.37;;;10.20;;
11344;SDS011;5727;42.600;23.028;2023-06-22T04:56:59;17.73;;;9.83;;
11344;SDS011;5727;42.600;23.028;2023-06-22T04:59:27;20.03;;;10.70;;
11344;SDS011;5727;42.600;23.028;2023-06-22T05:01:55;15.93;;;9.77;;
11344;SDS011;5727;42.600;23.028;2023-06-22T05:04:21;16.47;;;10.43;;
11344;SDS011;5727;42.600;23.028;2023-06-22T05:06:49;14.43;;;10.10;;
11344;SDS011;5727;42.600;23.028;2023-06-22T05:09:16;20.63;;;11.13;;
11344;SDS011;5727;42.600;23.028;2023-06-22T05:11:44;16.03;;;10.27;;
11344;SDS011;5727;42.600;23.028;2023-06-22T05:14:11;21.53;;;11.30;;
11344;SDS011;5727;42.600;23.028;2023-06-22T05:16:38;23.40;;;12.13;;
11344;SDS011;5727;42.600;23.028;2023-06-22T05:19:05;20.70;;;10.83;;
11344;SDS011;5727;42.600;23.028;2023-06-22T05:21:32;26.03;;;12.07;;
11344;SDS011;5727;42.600;23.028;2023-06-22T05:23:59;30.20;;;12.30;;
11344;SDS011;5727;42.600;23.028;2023-06-22T05:26:27;29.27;;;12.53;;
11344;SDS011;5727;42.600;23.028;2023-06-22T05:28:56;28.37;;;11.00;;
11344;SDS011;5727;42.600;23.028;2023-06-22T05:31:23;21.37;;;11.17;;
11344;SDS011;5727;42.600;23.028;2023-06-22T05:33:50;26.87;;;11.37;;
11344;SDS011;5727;42.600;23.028;2023-06-22T05:36:18;28.30;;;10.83;;
11344;SDS011;5727;42.600;23.028;2023-06-22T05:38:46;23.17;;;11.17;;
11344;SDS011;5727;42.600;23.028;2023-06-22T05:41:13;18.10;;;11.57;;
11344;SDS011;5727;42.600;23.028;2023-06-22T05:43:40;17.93;;;12.10;;
11344;SDS011;5727;42.600;23.028;2023-06-22T05:46:08;17.60;;;11.57;;
11344;SDS011;5727;42.600;23.028;2023-06-22T05:48:35;16.07;;;11.67;;
11344;SDS011;5727;42.600;23.028;2023-06-22T05:51:02;16.00;;;11.67;;
11344;SDS011;5727;42.600;23.028;2023-06-22T05:53:29;18.57;;;11.70;;
11344;SDS011;5727;42.600;23.028;2023-06-22T05:55:56;20.37;;;12.67;;
11344;SDS011;5727;42.600;23.028;2023-06-22T05:58:22;16.50;;;11.57;;
11344;SDS011;5727;42.600;23.028;2023-06-22T06:00:49;20.13;;;12.67;;
11344;SDS011;5727;42.600;23.028;2023-06-22T06:03:17;19.03;;;11.80;;
11344;SDS011;5727;42.600;23.028;2023-06-22T06:05:44;20.37;;;13.23;;
11344;SDS011;5727;42.600;23.028;2023-06-22T06:08:11;25.37;;;13.30;;
11344;SDS011;5727;42.600;23.028;2023-06-22T06:10:38;21.43;;;12.50;;
11344;SDS011;5727;42.600;23.028;2023-06-22T06:13:05;17.00;;;12.30;;
11344;SDS011;5727;42.600;23.028;2023-06-22T06:15:32;16.73;;;12.37;;
11344;SDS011;5727;42.600;23.028;2023-06-22T06:17:59;16.83;;;12.77;;
11344;SDS011;5727;42.600;23.028;2023-06-22T06:20:28;18.43;;;13.63;;
11344;SDS011;5727;42.600;23.028;2023-06-22T06:22:55;21.80;;;13.40;;
11344;SDS011;5727;42.600;23.028;2023-06-22T06:25:22;19.10;;;13.60;;
11344;SDS011;5727;42.600;23.028;2023-06-22T06:27:50;18.43;;;13.33;;
11344;SDS011;5727;42.600;23.028;2023-06-22T06:30:19;16.13;;;13.20;;
11344;SDS011;5727;42.600;23.028;2023-06-22T06:32:46;17.00;;;13.20;;
11344;SDS011;5727;42.600;23.028;2023-06-22T06:35:14;19.10;;;13.80;;
11344;SDS011;5727;42.600;23.028;2023-06-22T06:37:44;16.00;;;13.37;;
11344;SDS011;5727;42.600;23.028;2023-06-22T06:40:12;16.70;;;13.43;;
11344;SDS011;5727;42.600;23.028;2023-06-22T06:42:40;17.87;;;14.10;;
11344;SDS011;5727;42.600;23.028;2023-06-22T06:45:09;17.43;;;14.27;;
11344;SDS011;5727;42.600;23.028;2023-06-22T06:47:36;20.63;;;14.67;;
11344;SDS011;5727;42.600;23.028;2023-06-22T06:50:04;17.53;;;13.40;;
11344;SDS011;5727;42.600;23.028;2023-06-22T06:52:31;18.07;;;13.43;;
11344;SDS011;5727;42.600;23.028;2023-06-22T06:55:00;18.07;;;12.73;;
11344;SDS011;5727;42.600;23.028;2023-06-22T06:57:26;20.17;;;13.73;;
11344;SDS011;5727;42.600;23.028;2023-06-22T06:59:54;18.23;;;13.73;;
11344;SDS011;5727;42.600;23.028;2023-06-22T07:02:21;18.03;;;13.43;;
11344;SDS011;5727;42.600;23.028;2023-06-22T07:04:48;14.43;;;12.27;;
11344;SDS011;5727;42.600;23.028;2023-06-22T07:07:16;18.57;;;12.77;;
11344;SDS011;5727;42.600;23.028;2023-06-22T07:09:43;18.33;;;12.43;;
11344;SDS011;5727;42.600;23.028;2023-06-22T07:12:11;17.87;;;12.67;;
11344;SDS011;5727;42.600;23.028;2023-06-22T07:14:37;19.20;;;13.07;;
11344;SDS011;5727;42.600;23.028;2023-06-22T07:17:04;17.10;;;13.13;;
11344;SDS011;5727;42.600;23.028;2023-06-22T07:19:32;14.23;;;12.33;;
11344;SDS011;5727;42.600;23.028;2023-06-22T07:21:59;16.13;;;12.90;;
11344;SDS011;5727;42.600;23.028;2023-06-22T07:24:26;15.87;;;13.13;;
11344;SDS011;5727;42.600;23.028;2023-06-22T07:26:53;14.13;;;11.47;;
11344;SDS011;5727;42.600;23.028;2023-06-22T07:29:21;16.60;;;13.20;;
11344;SDS011;5727;42.600;23.028;2023-06-22T07:31:49;15.30;;;12.17;;
11344;SDS011;5727;42.600;23.028;2023-06-22T07:34:16;14.00;;;12.60;;
11344;SDS011;5727;42.600;23.028;2023-06-22T07:36:43;14.67;;;12.50;;
11344;SDS011;5727;42.600;23.028;2023-06-22T07:39:11;15.40;;;13.13;;
11344;SDS011;5727;42.600;23.028;2023-06-22T07:41:38;16.83;;;12.90;;
11344;SDS011;5727;42.600;23.028;2023-06-22T07:44:05;16.73;;;12.60;;
11344;SDS011;5727;42.600;23.028;2023-06-22T07:46:34;19.17;;;13.40;;
11344;SDS011;5727;42.600;23.028;2023-06-22T07:49:01;14.57;;;12.10;;
11344;SDS011;5727;42.600;23.028;2023-06-22T07:51:28;15.53;;;11.77;;
11344;SDS011;5727;42.600;23.028;2023-06-22T07:53:55;15.70;;;12.47;;
11344;SDS011;5727;42.600;23.028;2023-06-22T07:56:22;16.37;;;12.33;;
11344;SDS011;5727;42.600;23.028;2023-06-22T07:58:49;15.37;;;12.00;;
11344;SDS011;5727;42.600;23.028;2023-06-22T08:01:15;13.70;;;11.83;;
11344;SDS011;5727;42.600;23.028;2023-06-22T08:03:47;13.50;;;12.17;;
11344;SDS011;5727;42.600;23.028;2023-06-22T08:06:14;12.10;;;10.83;;
11344;SDS011;5727;42.600;23.028;2023-06-22T08:08:41;14.83;;;11.57;;
11344;SDS011;5727;42.600;23.028;2023-06-22T08:11:08;12.77;;;11.30;;
11344;SDS011;5727;42.600;23.028;2023-06-22T08:13:35;15.17;;;11.53;;
11344;SDS011;5727;42.600;23.028;2023-06-22T08:16:02;17.20;;;12.93;;
11344;SDS011;5727;42.600;23.028;2023-06-22T08:18:29;16.47;;;11.40;;
11344;SDS011;5727;42.600;23.028;2023-06-22T08:20:57;12.50;;;11.20;;
11344;SDS011;5727;42.600;23.028;2023-06-22T08:23:24;10.70;;;9.60;;
11344;SDS011;5727;42.600;23.028;2023-06-22T08:25:50;12.37;;;9.57;;
11344;SDS011;5727;42.600;23.028;2023-06-22T08:28:17;11.63;;;10.30;;
11344;SDS011;5727;42.600;23.028;2023-06-22T08:30:44;10.93;;;9.83;;
11344;SDS011;5727;42.600;23.028;2023-06-22T08:33:10;10.43;;;9.03;;
11344;SDS011;5727;42.600;23.028;2023-06-22T08:35:37;12.37;;;11.07;;
11344;SDS011;5727;42.600;23.028;2023-06-22T08:38:06;11.60;;;10.50;;
11344;SDS011;5727;42.600;23.028;2023-06-22T08:40:34;11.17;;;10.07;;
11344;SDS011;5727;42.600;23.028;2023-06-22T08:43:00;13.60;;;11.50;;
11344;SDS011;5727;42.600;23.028;2023-06-22T08:45:27;12.00;;;10.70;;
11344;SDS011;5727;42.600;23.028;2023-06-22T08:47:54;13.93;;;11.53;;
11344;SDS011;5727;42.600;23.028;2023-06-22T08:50:20;13.73;;;9.17;;
11344;SDS011;5727;42.600;23.028;2023-06-22T08:52:47;12.17;;;9.67;;
11344;SDS011;5727;42.600;23.028;2023-06-22T08:55:16;9.63;;;8.73;;
11344;SDS011;5727;42.600;23.028;2023-06-22T08:57:43;9.47;;;8.47;;
11344;SDS011;5727;42.600;23.028;2023-06-22T09:00:10;9.77;;;8.03;;
11344;SDS011;5727;42.600;23.028;2023-06-22T09:02:42;10.50;;;7.77;;
11344;SDS011;5727;42.600;23.028;2023-06-22T09:05:09;9.07;;;8.13;;
11344;SDS011;5727;42.600;23.028;2023-06-22T09:07:36;8.20;;;7.17;;
11344;SDS011;5727;42.600;23.028;2023-06-22T09:10:04;8.83;;;7.67;;
11344;SDS011;5727;42.600;23.028;2023-06-22T09:12:33;8.63;;;7.73;;
11344;SDS011;5727;42.600;23.028;2023-06-22T09:15:02;8.73;;;7.73;;
11344;SDS011;5727;42.600;23.028;2023-06-22T09:17:29;8.90;;;7.87;;
11344;SDS011;5727;42.600;23.028;2023-06-22T09:19:56;8.53;;;7.10;;
11344;SDS011;5727;42.600;23.028;2023-06-22T09:22:22;10.63;;;7.93;;
11344;SDS011;5727;42.600;23.028;2023-06-22T09:24:54;8.20;;;7.33;;
11344;SDS011;5727;42.600;23.028;2023-06-22T09:27:20;8.40;;;7.63;;
11344;SDS011;5727;42.600;23.028;2023-06-22T09:29:49;8.83;;;7.93;;
11344;SDS011;5727;42.600;23.028;2023-06-22T09:32:15;8.67;;;7.83;;
11344;SDS011;5727;42.600;23.028;2023-06-22T09:34:42;9.83;;;8.80;;
11344;SDS011;5727;42.600;23.028;2023-06-22T09:37:09;8.80;;;7.90;;
11344;SDS011;5727;42.600;23.028;2023-06-22T09:39:36;9.57;;;8.60;;
11344;SDS011;5727;42.600;23.028;2023-06-22T09:42:03;9.23;;;8.33;;
11344;SDS011;5727;42.600;23.028;2023-06-22T09:44:30;9.70;;;8.70;;
11344;SDS011;5727;42.600;23.028;2023-06-22T09:46:59;9.57;;;8.57;;
11344;SDS011;5727;42.600;23.028;2023-06-22T09:49:26;10.13;;;8.00;;
11344;SDS011;5727;42.600;23.028;2023-06-22T09:51:53;8.75;;;7.95;;
11344;SDS011;5727;42.600;23.028;2023-06-22T09:54:19;9.70;;;8.80;;
11344;SDS011;5727;42.600;23.028;2023-06-22T09:56:46;8.52;;;7.72;;
11344;SDS011;5727;42.600;23.028;2023-06-22T09:59:13;8.85;;;7.97;;
11344;SDS011;5727;42.600;23.028;2023-06-22T10:01:39;9.60;;;8.70;;
11344;SDS011;5727;42.600;23.028;2023-06-22T10:04:07;9.55;;;8.55;;
11344;SDS011;5727;42.600;23.028;2023-06-22T10:06:34;8.38;;;7.63;;
11344;SDS011;5727;42.600;23.028;2023-06-22T10:09:01;9.10;;;8.20;;
11344;SDS011;5727;42.600;23.028;2023-06-22T10:11:28;10.07;;;7.32;;
11344;SDS011;5727;42.600;23.028;2023-06-22T10:13:55;8.57;;;7.78;;
11344;SDS011;5727;42.600;23.028;2023-06-22T10:16:23;8.30;;;7.40;;
11344;SDS011;5727;42.600;23.028;2023-06-22T10:18:51;8.88;;;7.97;;
11344;SDS011;5727;42.600;23.028;2023-06-22T10:21:20;7.70;;;6.90;;
11344;SDS011;5727;42.600;23.028;2023-06-22T10:23:46;9.20;;;7.30;;
11344;SDS011;5727;42.600;23.028;2023-06-22T10:26:13;8.10;;;6.82;;
11344;SDS011;5727;42.600;23.028;2023-06-22T10:28:40;6.90;;;6.20;;
11344;SDS011;5727;42.600;23.028;2023-06-22T10:31:07;7.60;;;6.72;;
11344;SDS011;5727;42.600;23.028;2023-06-22T10:33:33;9.05;;;7.72;;
11344;SDS011;5727;42.600;23.028;2023-06-22T10:36:00;7.75;;;6.65;;
11344;SDS011;5727;42.600;23.028;2023-06-22T10:38:28;7.20;;;6.50;;
11344;SDS011;5727;42.600;23.028;2023-06-22T10:40:55;7.95;;;7.18;;
11344;SDS011;5727;42.600;23.028;2023-06-22T10:43:22;7.88;;;6.97;;
11344;SDS011;5727;42.600;23.028;2023-06-22T10:45:48;7.95;;;6.32;;
11344;SDS011;5727;42.600;23.028;2023-06-22T10:48:15;9.90;;;7.00;;
11344;SDS011;5727;42.600;23.028;2023-06-22T10:50:42;7.15;;;6.45;;
11344;SDS011;5727;42.600;23.028;2023-06-22T10:53:08;10.00;;;6.85;;
11344;SDS011;5727;42.600;23.028;2023-06-22T10:55:36;6.90;;;6.20;;
11344;SDS011;5727;42.600;23.028;2023-06-22T10:58:03;7.20;;;6.50;;
11344;SDS011;5727;42.600;23.028;2023-06-22T11:00:30;7.13;;;6.40;;
11344;SDS011;5727;42.600;23.028;2023-06-22T11:02:56;7.68;;;5.55;;
11344;SDS011;5727;42.600;23.028;2023-06-22T11:05:23;6.70;;;6.10;;
11344;SDS011;5727;42.600;23.028;2023-06-22T11:07:50;7.82;;;6.05;;
11344;SDS011;5727;42.600;23.028;2023-06-22T11:10:17;5.03;;;4.63;;
11344;SDS011;5727;42.600;23.028;2023-06-22T11:12:45;8.75;;;4.82;;
11344;SDS011;5727;42.600;23.028;2023-06-22T11:15:12;6.30;;;5.40;;
11344;SDS011;5727;42.600;23.028;2023-06-22T11:17:39;7.15;;;5.57;;
11344;SDS011;5727;42.600;23.028;2023-06-22T11:20:06;6.28;;;5.68;;
11344;SDS011;5727;42.600;23.028;2023-06-22T11:22:36;5.95;;;5.45;;
11344;SDS011;5727;42.600;23.028;2023-06-22T11:25:05;5.97;;;5.45;;
11344;SDS011;5727;42.600;23.028;2023-06-22T11:27:32;6.55;;;5.55;;
11344;SDS011;5727;42.600;23.028;2023-06-22T11:30:00;6.53;;;5.93;;
11344;SDS011;5727;42.600;23.028;2023-06-22T11:32:26;6.35;;;5.18;;
11344;SDS011;5727;42.600;23.028;2023-06-22T11:34:53;6.22;;;5.05;;
11344;SDS011;5727;42.600;23.028;2023-06-22T11:37:20;5.43;;;4.90;;
11344;SDS011;5727;42.600;23.028;2023-06-22T11:39:47;6.25;;;5.45;;
11344;SDS011;5727;42.600;23.028;2023-06-22T11:42:13;5.65;;;5.07;;
11344;SDS011;5727;42.600;23.028;2023-06-22T11:44:40;7.38;;;5.80;;
11344;SDS011;5727;42.600;23.028;2023-06-22T11:47:09;8.43;;;4.93;;
11344;SDS011;5727;42.600;23.028;2023-06-22T11:49:37;6.07;;;5.43;;
11344;SDS011;5727;42.600;23.028;2023-06-22T11:52:05;8.40;;;4.80;;
11344;SDS011;5727;42.600;23.028;2023-06-22T11:54:32;5.90;;;4.95;;
11344;SDS011;5727;42.600;23.028;2023-06-22T11:56:59;5.80;;;5.28;;
11344;SDS011;5727;42.600;23.028;2023-06-22T11:59:26;5.75;;;5.20;;
11344;SDS011;5727;42.600;23.028;2023-06-22T12:01:53;5.57;;;4.93;;
11344;SDS011;5727;42.600;23.028;2023-06-22T12:04:21;4.85;;;4.35;;
11344;SDS011;5727;42.600;23.028;2023-06-22T12:06:48;5.53;;;4.70;;
11344;SDS011;5727;42.600;23.028;2023-06-22T12:09:15;6.40;;;4.75;;
11344;SDS011;5727;42.600;23.028;2023-06-22T12:11:42;5.63;;;5.05;;
11344;SDS011;5727;42.600;23.028;2023-06-22T12:14:09;5.93;;;5.05;;
11344;SDS011;5727;42.600;23.028;2023-06-22T12:16:35;5.93;;;5.38;;
11344;SDS011;5727;42.600;23.028;2023-06-22T12:19:02;5.43;;;4.88;;
11344;SDS011;5727;42.600;23.028;2023-06-22T12:21:31;5.35;;;4.85;;
11344;SDS011;5727;42.600;23.028;2023-06-22T12:23:57;5.32;;;4.85;;
11344;SDS011;5727;42.600;23.028;2023-06-22T12:26:24;5.20;;;4.75;;
11344;SDS011;5727;42.600;23.028;2023-06-22T12:28:51;5.25;;;4.55;;
11344;SDS011;5727;42.600;23.028;2023-06-22T12:31:17;5.45;;;4.45;;
11344;SDS011;5727;42.600;23.028;2023-06-22T12:33:44;5.68;;;4.80;;
11344;SDS011;5727;42.600;23.028;2023-06-22T12:36:11;5.95;;;5.10;;
11344;SDS011;5727;42.600;23.028;2023-06-22T12:38:39;5.10;;;4.60;;
11344;SDS011;5727;42.600;23.028;2023-06-22T12:41:06;10.82;;;5.30;;
11344;SDS011;5727;42.600;23.028;2023-06-22T12:43:33;5.97;;;5.47;;
11344;SDS011;5727;42.600;23.028;2023-06-22T12:46:00;8.02;;;5.10;;
11344;SDS011;5727;42.600;23.028;2023-06-22T12:48:27;19.25;;;7.10;;
11344;SDS011;5727;42.600;23.028;2023-06-22T12:50:53;11.00;;;6.60;;
11344;SDS011;5727;42.600;23.028;2023-06-22T12:53:20;8.43;;;6.55;;
11344;SDS011;5727;42.600;23.028;2023-06-22T12:55:49;8.55;;;6.00;;
11344;SDS011;5727;42.600;23.028;2023-06-22T12:58:15;9.05;;;6.00;;
11344;SDS011;5727;42.600;23.028;2023-06-22T13:01:00;10.45;;;6.47;;
11344;SDS011;5727;42.600;23.028;2023-06-22T13:03:27;12.18;;;7.10;;
11344;SDS011;5727;42.600;23.028;2023-06-22T13:05:54;10.70;;;6.20;;
11344;SDS011;5727;42.600;23.028;2023-06-22T13:08:21;12.73;;;6.63;;
11344;SDS011;5727;42.600;23.028;2023-06-22T13:10:49;14.80;;;6.82;;
11344;SDS011;5727;42.600;23.028;2023-06-22T13:13:15;9.50;;;6.20;;
11344;SDS011;5727;42.600;23.028;2023-06-22T13:15:42;7.43;;;4.78;;
11344;SDS011;5727;42.600;23.028;2023-06-22T13:18:09;8.07;;;4.80;;
11344;SDS011;5727;42.600;23.028;2023-06-22T13:20:36;10.85;;;5.15;;
11344;SDS011;5727;42.600;23.028;2023-06-22T13:23:03;10.45;;;6.78;;
11344;SDS011;5727;42.600;23.028;2023-06-22T13:25:29;9.50;;;6.30;;
11344;SDS011;5727;42.600;23.028;2023-06-22T13:27:57;9.50;;;6.22;;
11344;SDS011;5727;42.600;23.028;2023-06-22T13:30:24;10.70;;;6.70;;
11344;SDS011;5727;42.600;23.028;2023-06-22T13:32:51;12.02;;;6.57;;
11344;SDS011;5727;42.600;23.028;2023-06-22T13:35:17;12.70;;;6.05;;
11344;SDS011;5727;42.600;23.028;2023-06-22T13:37:44;10.55;;;6.50;;
11344;SDS011;5727;42.600;23.028;2023-06-22T13:40:11;11.90;;;6.70;;
11344;SDS011;5727;42.600;23.028;2023-06-22T13:42:38;9.57;;;6.05;;
11344;SDS011;5727;42.600;23.028;2023-06-22T13:45:07;9.50;;;5.72;;
11344;SDS011;5727;42.600;23.028;2023-06-22T13:47:34;7.45;;;5.93;;
11344;SDS011;5727;42.600;23.028;2023-06-22T13:50:00;8.82;;;6.05;;
11344;SDS011;5727;42.600;23.028;2023-06-22T13:52:27;8.88;;;5.95;;
11344;SDS011;5727;42.600;23.028;2023-06-22T13:54:54;8.23;;;5.97;;
11344;SDS011;5727;42.600;23.028;2023-06-22T13:57:21;12.13;;;6.55;;
11344;SDS011;5727;42.600;23.028;2023-06-22T13:59:47;13.95;;;6.13;;
11344;SDS011;5727;42.600;23.028;2023-06-22T14:02:15;7.28;;;5.93;;
11344;SDS011;5727;42.600;23.028;2023-06-22T14:04:42;8.55;;;5.88;;
11344;SDS011;5727;42.600;23.028;2023-06-22T14:07:09;9.75;;;5.95;;
11344;SDS011;5727;42.600;23.028;2023-06-22T14:09:36;8.00;;;6.05;;
11344;SDS011;5727;42.600;23.028;2023-06-22T14:12:03;7.10;;;5.30;;
11344;SDS011;5727;42.600;23.028;2023-06-22T14:14:31;8.32;;;5.80;;
11344;SDS011;5727;42.600;23.028;2023-06-22T14:16:58;9.23;;;5.93;;
11344;SDS011;5727;42.600;23.028;2023-06-22T14:19:26;6.95;;;5.70;;
11344;SDS011;5727;42.600;23.028;2023-06-22T14:21:53;9.18;;;5.35;;
11344;SDS011;5727;42.600;23.028;2023-06-22T14:24:19;9.90;;;6.15;;
11344;SDS011;5727;42.600;23.028;2023-06-22T14:26:46;7.50;;;5.78;;
11344;SDS011;5727;42.600;23.028;2023-06-22T14:29:13;8.88;;;6.22;;
11344;SDS011;5727;42.600;23.028;2023-06-22T14:31:40;7.03;;;5.75;;
11344;SDS011;5727;42.600;23.028;2023-06-22T14:34:11;10.02;;;7.18;;